createdAt,value
2023-02-19T00:00:40.715Z,34.25
2023-02-19T00:02:43.588Z,33.83
2023-02-19T00:04:46.044Z,32.63
2023-02-19T00:06:48.810Z,33.75
2023-02-19T00:08:51.314Z,30.23
2023-02-19T00:10:53.897Z,31.48
2023-02-19T00:12:56.479Z,31.55
2023-02-19T00:14:58.889Z,29.60
2023-02-19T00:17:01.283Z,29.60
2023-02-19T00:19:05.961Z,31.15
2023-02-19T00:21:08.859Z,29.73
2023-02-19T00:23:11.582Z,27.70
2023-02-19T00:25:16.815Z,28.13
2023-02-19T00:27:19.217Z,28.50
2023-02-19T00:29:22.763Z,29.25
2023-02-19T00:31:27.566Z,33.33
2023-02-19T00:33:30.103Z,62.25
2023-02-19T00:35:35.324Z,52.83
2023-02-19T00:37:38.024Z,51.22
2023-02-19T00:39:40.508Z,48.13
2023-02-19T00:41:43.220Z,37.38
2023-02-19T00:43:49.887Z,39.22
2023-02-19T00:45:52.322Z,31.10
2023-02-19T00:47:54.740Z,27.63
2023-02-19T00:49:57.205Z,26.88
2023-02-19T00:51:59.565Z,22.45
2023-02-19T00:54:02.560Z,23.65
2023-02-19T00:56:05.378Z,25.87
2023-02-19T00:58:07.846Z,19.65
2023-02-19T01:00:11.113Z,21.02
2023-02-19T01:02:13.633Z,22.63
2023-02-19T01:04:16.607Z,25.10
2023-02-19T01:06:20.806Z,18.47
2023-02-19T01:08:23.613Z,21.35
2023-02-19T01:10:26.085Z,25.10
2023-02-19T01:12:28.585Z,12.00
2023-02-19T01:14:31.062Z,18.52
2023-02-19T01:16:33.568Z,30.23
2023-02-19T01:18:36.446Z,23.17
2023-02-19T01:20:40.854Z,22.05
2023-02-19T01:22:43.378Z,17.77
2023-02-19T01:24:45.792Z,17.25
2023-02-19T01:26:48.200Z,19.43
2023-02-19T01:28:51.005Z,20.30
2023-02-19T01:30:53.518Z,18.40
2023-02-19T01:32:56.020Z,18.42
2023-02-19T01:34:58.462Z,17.58
2023-02-19T01:37:00.990Z,19.67
2023-02-19T01:39:05.317Z,19.15
2023-02-19T01:41:10.511Z,22.90
2023-02-19T01:43:17.064Z,24.00
2023-02-19T01:45:32.929Z,26.42
2023-02-19T01:47:35.328Z,28.13
2023-02-19T01:49:48.700Z,31.02
2023-02-19T01:52:01.199Z,28.17
2023-02-19T01:54:06.067Z,29.27
2023-02-19T01:56:09.002Z,28.65
2023-02-19T01:58:11.548Z,32.40
2023-02-19T02:00:16.098Z,31.42
2023-02-19T02:02:18.598Z,29.80
2023-02-19T02:04:21.146Z,31.98
2023-02-19T02:06:26.327Z,32.45
2023-02-19T02:08:48.512Z,33.20
2023-02-19T02:10:51.379Z,33.05
2023-02-19T02:12:58.654Z,33.78
2023-02-19T02:15:01.082Z,33.35
2023-02-19T02:17:39.986Z,34.25
2023-02-19T02:19:51.399Z,32.23
2023-02-19T02:22:02.342Z,31.25
2023-02-19T02:24:25.822Z,32.05
2023-02-19T02:26:49.696Z,31.55
2023-02-19T02:29:22.212Z,28.20
2023-02-19T02:31:49.831Z,28.43
2023-02-19T02:34:18.329Z,29.55
2023-02-19T02:36:30.631Z,33.97
2023-02-19T02:38:35.773Z,29.33
2023-02-19T02:40:42.611Z,30.15
2023-02-19T02:42:45.420Z,30.30
2023-02-19T02:45:07.853Z,29.98
2023-02-19T02:47:30.718Z,26.90
2023-02-19T02:49:54.589Z,27.63
2023-02-19T02:51:57.765Z,29.05
2023-02-19T02:54:26.316Z,27.83
2023-02-19T02:56:29.719Z,21.17
2023-02-19T02:58:32.716Z,25.30
2023-02-19T03:00:56.128Z,25.95
2023-02-19T03:02:58.508Z,18.90
2023-02-19T03:05:29.876Z,14.60
2023-02-19T03:07:42.310Z,15.23
2023-02-19T03:09:45.150Z,17.92
2023-02-19T03:12:09.158Z,17.88
2023-02-19T03:14:40.197Z,17.55
2023-02-19T03:17:03.174Z,18.33
2023-02-19T03:19:21.740Z,18.02
2023-02-19T03:21:24.965Z,19.55
2023-02-19T03:23:50.209Z,21.15
2023-02-19T03:26:04.582Z,22.83
2023-02-19T03:28:11.150Z,24.50
2023-02-19T03:30:19.418Z,24.38
2023-02-19T03:32:40.113Z,21.85
2023-02-19T03:34:47.060Z,19.58
2023-02-19T03:36:59.586Z,21.38
2023-02-19T03:39:06.172Z,23.10
2023-02-19T03:41:23.694Z,24.33
2023-02-19T03:43:36.151Z,20.10
2023-02-19T03:45:59.030Z,15.38
2023-02-19T03:48:24.363Z,16.48
2023-02-19T03:50:41.805Z,15.50
2023-02-19T03:53:08.186Z,13.15
2023-02-19T03:55:31.996Z,15.55
2023-02-19T03:57:58.995Z,16.10
2023-02-19T04:00:21.289Z,14.85
2023-02-19T04:02:41.393Z,13.47
2023-02-19T04:04:44.736Z,14.40
2023-02-19T04:06:53.551Z,14.55
2023-02-19T04:08:59.297Z,13.90
2023-02-19T04:11:01.734Z,14.85
2023-02-19T04:13:09.193Z,15.53
2023-02-19T04:15:15.215Z,14.80
2023-02-19T04:17:24.533Z,17.48
2023-02-19T04:19:28.382Z,16.70
2023-02-19T04:21:32.663Z,17.42
2023-02-19T04:23:39.581Z,16.90
2023-02-19T04:25:46.319Z,16.33
2023-02-19T04:27:48.749Z,22.10
2023-02-19T04:29:51.123Z,17.25
2023-02-19T04:31:53.559Z,15.23
2023-02-19T04:33:55.992Z,25.50
2023-02-19T04:35:58.477Z,26.13
2023-02-19T04:38:01.123Z,28.10
2023-02-19T04:40:03.766Z,27.48
2023-02-19T04:42:06.330Z,25.05
2023-02-19T04:44:08.804Z,26.17
2023-02-19T04:46:11.236Z,23.55
2023-02-19T04:48:13.857Z,25.58
2023-02-19T04:50:16.340Z,29.20
2023-02-19T04:52:18.782Z,29.45
2023-02-19T04:54:21.133Z,28.17
2023-02-19T04:56:23.577Z,30.17
2023-02-19T04:58:25.923Z,30.77
2023-02-19T05:00:28.404Z,28.23
2023-02-19T05:02:30.826Z,25.83
2023-02-19T05:04:33.405Z,27.57
2023-02-19T05:06:35.898Z,28.45
2023-02-19T05:08:39.044Z,28.67
2023-02-19T05:10:41.585Z,28.33
2023-02-19T05:12:43.989Z,26.00
2023-02-19T05:14:46.473Z,25.40
2023-02-19T05:16:49.173Z,29.50
2023-02-19T05:18:51.570Z,25.50
2023-02-19T05:20:54.440Z,25.33
2023-02-19T05:22:57.118Z,29.27
2023-02-19T05:24:59.591Z,28.90
2023-02-19T05:27:02.033Z,27.20
2023-02-19T05:29:04.918Z,25.15
2023-02-19T05:31:09.609Z,24.88
2023-02-19T05:33:13.895Z,24.70
2023-02-19T05:35:16.341Z,24.50
2023-02-19T05:37:18.773Z,26.45
2023-02-19T05:39:21.188Z,24.98
2023-02-19T05:41:25.846Z,25.27
2023-02-19T05:43:28.263Z,27.35
2023-02-19T05:45:31.007Z,26.80
2023-02-19T05:47:33.426Z,28.25
2023-02-19T05:49:35.857Z,29.63
2023-02-19T05:51:38.329Z,31.15
2023-02-19T05:53:42.162Z,29.40
2023-02-19T05:55:44.571Z,31.67
2023-02-19T05:57:48.454Z,30.17
2023-02-19T05:59:50.935Z,27.42
2023-02-19T06:01:54.317Z,27.05
2023-02-19T06:03:57.882Z,28.08
2023-02-19T06:06:00.346Z,30.57
2023-02-19T06:08:02.757Z,31.63
2023-02-19T06:10:06.111Z,26.88
2023-02-19T06:12:08.550Z,27.45
2023-02-19T06:14:13.668Z,30.08
2023-02-19T06:16:17.748Z,28.73
2023-02-19T06:18:20.171Z,29.20
2023-02-19T06:20:22.892Z,28.70
2023-02-19T06:22:26.647Z,31.13
2023-02-19T06:24:29.182Z,35.63
2023-02-19T06:26:31.684Z,30.57
2023-02-19T06:28:34.285Z,30.20
2023-02-19T06:30:37.205Z,30.10
2023-02-19T06:32:39.638Z,25.77
2023-02-19T06:34:42.192Z,29.13
2023-02-19T06:36:44.691Z,28.23
2023-02-19T06:38:47.570Z,28.23
2023-02-19T06:40:50.285Z,28.60
2023-02-19T06:42:52.682Z,26.48
2023-02-19T06:45:02.898Z,26.30
2023-02-19T06:47:05.394Z,26.20
2023-02-19T06:49:08.106Z,28.73
2023-02-19T06:51:15.113Z,31.95
2023-02-19T06:53:17.528Z,32.92
2023-02-19T06:55:19.867Z,32.92
2023-02-19T06:57:22.310Z,35.43
2023-02-19T06:59:24.756Z,35.38
2023-02-19T07:01:28.617Z,37.63
2023-02-19T07:03:30.975Z,36.28
2023-02-19T07:05:33.416Z,36.10
2023-02-19T07:07:35.931Z,35.43
2023-02-19T07:09:38.313Z,36.55
2023-02-19T07:11:41.194Z,36.33
2023-02-19T07:13:43.556Z,36.60
2023-02-19T07:15:45.897Z,36.25
2023-02-19T07:17:48.314Z,37.27
2023-02-19T07:19:50.741Z,37.47
2023-02-19T07:21:53.221Z,38.55
2023-02-19T07:23:55.746Z,39.50
2023-02-19T07:25:58.274Z,37.45
2023-02-19T07:28:00.674Z,35.13
2023-02-19T07:30:03.431Z,36.05
2023-02-19T07:32:05.850Z,39.17
2023-02-19T07:34:08.647Z,38.55
2023-02-19T07:36:11.474Z,34.90
2023-02-19T07:38:15.840Z,36.90
2023-02-19T07:40:18.348Z,37.55
2023-02-19T07:42:20.724Z,35.15
2023-02-19T07:44:23.143Z,33.75
2023-02-19T07:46:25.536Z,31.73
2023-02-19T07:48:28.004Z,29.63
2023-02-19T07:50:30.394Z,38.75
2023-02-19T07:52:34.439Z,115.95
2023-02-19T07:54:36.806Z,88.68
2023-02-19T07:56:39.150Z,48.40
2023-02-19T07:58:41.888Z,47.17
2023-02-19T08:00:44.579Z,38.50
2023-02-19T08:03:03.214Z,33.35
2023-02-19T08:05:06.897Z,46.60
2023-02-19T08:07:09.363Z,36.70
2023-02-19T08:09:12.108Z,37.73
2023-02-19T08:11:33.188Z,35.03
2023-02-19T08:13:35.590Z,27.40
2023-02-19T08:15:37.951Z,28.35
2023-02-19T08:17:40.310Z,25.00
2023-02-19T08:19:42.797Z,24.20
2023-02-19T08:21:45.350Z,24.15
2023-02-19T08:23:50.608Z,25.17
2023-02-19T08:25:54.395Z,26.95
2023-02-19T08:27:56.871Z,26.70
2023-02-19T08:29:59.260Z,26.93
2023-02-19T08:32:01.703Z,26.45
2023-02-19T08:34:04.199Z,26.50
2023-02-19T08:36:08.784Z,25.23
2023-02-19T08:38:12.714Z,25.55
2023-02-19T08:40:15.149Z,26.30
2023-02-19T08:42:17.535Z,25.60
2023-02-19T08:44:20.021Z,26.08
2023-02-19T08:46:22.918Z,26.70
2023-02-19T08:48:25.343Z,28.70
2023-02-19T08:50:27.812Z,28.83
2023-02-19T08:52:30.267Z,28.67
2023-02-19T08:54:32.746Z,29.77
2023-02-19T08:56:35.262Z,29.27
2023-02-19T08:58:37.763Z,33.83
2023-02-19T09:00:40.132Z,29.37
2023-02-19T09:02:42.640Z,26.73
2023-02-19T09:04:44.976Z,29.17
2023-02-19T09:06:47.347Z,23.90
2023-02-19T09:08:49.821Z,25.95
2023-02-19T09:11:03.478Z,24.07
2023-02-19T09:13:06.154Z,26.77
2023-02-19T09:15:09.527Z,22.30
2023-02-19T09:17:11.868Z,19.05
2023-02-19T09:19:14.349Z,20.23
2023-02-19T09:21:16.691Z,20.90
2023-02-19T09:23:19.171Z,19.95
2023-02-19T09:25:21.586Z,19.70
2023-02-19T09:27:24.073Z,17.17
2023-02-19T09:29:27.836Z,16.67
2023-02-19T09:31:30.464Z,14.17
2023-02-19T09:33:32.988Z,14.15
2023-02-19T09:35:38.175Z,15.85
2023-02-19T09:37:40.621Z,18.70
2023-02-19T09:39:42.990Z,17.83
2023-02-19T09:41:47.479Z,30.10
2023-02-19T09:43:49.990Z,22.70
2023-02-19T09:46:04.968Z,16.70
2023-02-19T09:48:07.770Z,20.08
2023-02-19T09:50:15.750Z,19.63
2023-02-19T09:52:23.966Z,15.60
2023-02-19T09:54:29.402Z,14.63
2023-02-19T09:56:32.073Z,11.88
2023-02-19T09:58:36.919Z,17.02
2023-02-19T10:00:40.472Z,19.00
2023-02-19T10:02:48.344Z,12.77
2023-02-19T10:04:51.551Z,11.32
2023-02-19T10:06:59.033Z,10.20
2023-02-19T10:09:12.685Z,10.15
2023-02-19T10:11:15.214Z,10.48
2023-02-19T10:13:29.345Z,11.30
2023-02-19T10:15:56.140Z,9.70
2023-02-19T10:17:58.797Z,11.55
2023-02-19T10:20:04.293Z,9.52
2023-02-19T10:22:11.652Z,10.23
2023-02-19T10:24:27.501Z,10.10
2023-02-19T10:26:34.789Z,9.73
2023-02-19T10:28:37.368Z,9.68
2023-02-19T10:30:39.771Z,9.07
2023-02-19T10:33:09.164Z,8.27
2023-02-19T10:35:15.721Z,6.80
2023-02-19T10:37:19.637Z,7.10
2023-02-19T10:39:22.005Z,6.65
2023-02-19T10:41:25.878Z,7.68
2023-02-19T10:43:34.092Z,7.00
2023-02-19T10:45:41.322Z,7.93
2023-02-19T10:47:46.958Z,8.95
2023-02-19T10:49:51.541Z,7.70
2023-02-19T10:51:55.289Z,6.43
2023-02-19T10:54:17.875Z,7.45
2023-02-19T10:56:28.915Z,7.70
2023-02-19T10:58:34.432Z,7.82
2023-02-19T11:00:36.859Z,8.68
2023-02-19T11:02:39.343Z,12.75
2023-02-19T11:04:42.182Z,7.93
2023-02-19T11:06:45.034Z,8.50
2023-02-19T11:08:50.241Z,9.40
2023-02-19T11:10:52.720Z,6.70
2023-02-19T11:13:01.187Z,6.22
2023-02-19T11:15:43.427Z,5.93
2023-02-19T11:17:45.927Z,5.77
2023-02-19T11:19:56.163Z,4.97
2023-02-19T11:22:00.137Z,5.25
2023-02-19T11:24:05.596Z,5.15
2023-02-19T11:26:18.213Z,5.38
2023-02-19T11:28:33.673Z,5.07
2023-02-19T11:30:43.357Z,4.75
2023-02-19T11:32:45.836Z,4.75
2023-02-19T11:34:48.692Z,4.75
2023-02-19T11:37:10.230Z,4.82
2023-02-19T11:39:20.845Z,7.20
2023-02-19T11:41:46.043Z,6.18
2023-02-19T11:44:09.343Z,5.10
2023-02-19T11:46:34.028Z,5.20
2023-02-19T11:48:54.822Z,5.05
2023-02-19T11:51:35.442Z,6.13
2023-02-19T11:53:49.961Z,6.25
2023-02-19T11:56:12.315Z,6.15
2023-02-19T11:58:26.948Z,6.03
2023-02-19T12:00:31.008Z,5.75
2023-02-19T12:03:05.522Z,5.87
2023-02-19T12:05:23.012Z,7.22
2023-02-19T12:07:47.756Z,5.55
2023-02-19T12:10:21.237Z,5.35
2023-02-19T12:12:29.262Z,6.20
2023-02-19T12:14:40.171Z,5.13
2023-02-19T12:16:51.852Z,5.85
2023-02-19T12:19:31.682Z,4.93
2023-02-19T12:22:09.262Z,6.18
2023-02-19T12:24:20.431Z,6.28
2023-02-19T12:26:41.461Z,5.60
2023-02-19T12:28:53.872Z,5.15
2023-02-19T12:31:09.751Z,5.30
2023-02-19T12:33:39.637Z,10.25
2023-02-19T12:36:15.920Z,6.93
2023-02-19T12:38:22.511Z,5.63
2023-02-19T12:40:33.428Z,6.22
2023-02-19T12:42:44.876Z,5.57
2023-02-19T12:44:54.757Z,6.13
2023-02-19T12:47:01.343Z,6.03
2023-02-19T12:49:12.882Z,6.43
2023-02-19T12:51:27.590Z,5.70
2023-02-19T12:53:43.061Z,6.20
2023-02-19T12:55:47.123Z,6.00
2023-02-19T12:57:50.248Z,6.07
2023-02-19T12:59:56.102Z,6.47
2023-02-19T13:02:20.840Z,6.70
2023-02-19T13:04:55.344Z,6.00
2023-02-19T13:07:29.863Z,5.90
2023-02-19T13:09:48.494Z,6.13
2023-02-19T13:12:03.022Z,6.40
2023-02-19T13:14:18.786Z,8.05
2023-02-19T13:16:23.402Z,8.65
2023-02-19T13:18:46.749Z,7.50
2023-02-19T13:20:51.842Z,6.70
2023-02-19T13:23:21.325Z,5.97
2023-02-19T13:25:27.018Z,6.18
2023-02-19T13:28:04.731Z,6.05
2023-02-19T13:30:33.984Z,6.50
2023-02-19T13:32:39.056Z,6.78
2023-02-19T13:35:11.961Z,5.60
2023-02-19T13:37:14.926Z,6.10
2023-02-19T13:39:17.936Z,7.53
2023-02-19T13:41:29.197Z,6.53
2023-02-19T13:43:38.925Z,6.63
2023-02-19T13:45:46.264Z,6.83
2023-02-19T13:47:57.761Z,6.15
2023-02-19T13:50:06.832Z,5.97
2023-02-19T13:52:33.187Z,6.90
2023-02-19T13:54:40.267Z,6.90
2023-02-19T13:56:42.727Z,5.97
2023-02-19T13:59:01.440Z,6.20
2023-02-19T14:01:06.552Z,6.70
2023-02-19T14:03:28.725Z,6.07
2023-02-19T14:05:57.859Z,6.90
2023-02-19T14:08:00.263Z,7.30
2023-02-19T14:10:03.928Z,7.30
2023-02-19T14:12:19.096Z,6.82
2023-02-19T14:14:27.066Z,6.50
2023-02-19T14:16:37.939Z,6.70
2023-02-19T14:18:44.818Z,6.27
2023-02-19T14:20:47.280Z,6.20
2023-02-19T14:23:01.749Z,6.80
2023-02-19T14:25:07.906Z,7.75
2023-02-19T14:27:10.334Z,7.45
2023-02-19T14:29:14.796Z,6.83
2023-02-19T14:31:26.180Z,7.43
2023-02-19T14:33:34.951Z,8.20
2023-02-19T14:35:46.785Z,7.20
2023-02-19T14:37:50.287Z,7.35
2023-02-19T14:39:54.683Z,8.30
2023-02-19T14:42:02.286Z,7.43
2023-02-19T14:44:05.219Z,7.78
2023-02-19T14:46:24.472Z,7.45
2023-02-19T14:48:34.881Z,7.28
2023-02-19T14:50:37.721Z,7.90
2023-02-19T14:52:46.597Z,7.75
2023-02-19T14:54:59.823Z,7.68
2023-02-19T14:57:03.950Z,8.48
2023-02-19T14:59:13.531Z,10.07
2023-02-19T15:01:28.977Z,7.80
2023-02-19T15:03:34.842Z,6.72
2023-02-19T15:05:37.907Z,6.40
2023-02-19T15:07:42.360Z,7.35
2023-02-19T15:09:50.739Z,7.72
2023-02-19T15:11:54.204Z,6.17
2023-02-19T15:14:02.454Z,7.55
2023-02-19T15:16:05.246Z,7.97
2023-02-19T15:18:07.912Z,7.50
2023-02-19T15:20:12.739Z,7.97
2023-02-19T15:22:20.365Z,7.73
2023-02-19T15:24:23.148Z,7.53
2023-02-19T15:26:42.839Z,8.02
2023-02-19T15:28:45.226Z,8.73
2023-02-19T15:30:47.875Z,8.15
2023-02-19T15:32:57.811Z,8.87
2023-02-19T15:35:02.982Z,6.53
2023-02-19T15:37:07.756Z,6.45
2023-02-19T15:39:33.312Z,7.07
2023-02-19T15:41:36.114Z,6.93
2023-02-19T15:43:50.818Z,6.70
2023-02-19T15:45:55.606Z,6.72
2023-02-19T15:48:14.234Z,7.50
2023-02-19T15:50:35.298Z,7.88
2023-02-19T15:52:37.674Z,8.00
2023-02-19T15:54:55.150Z,8.23
2023-02-19T15:57:01.696Z,9.07
2023-02-19T15:59:16.455Z,8.68
2023-02-19T16:01:25.856Z,10.38
2023-02-19T16:03:29.469Z,9.82
2023-02-19T16:05:37.128Z,11.67
2023-02-19T16:07:39.542Z,10.88
2023-02-19T16:09:42.028Z,8.85
2023-02-19T16:11:55.666Z,10.77
2023-02-19T16:14:37.424Z,10.63
2023-02-19T16:16:41.516Z,13.93
2023-02-19T16:18:51.849Z,15.27
2023-02-19T16:20:54.266Z,17.63
2023-02-19T16:23:11.608Z,17.30
2023-02-19T16:25:33.928Z,16.48
2023-02-19T16:27:39.160Z,15.53
2023-02-19T16:29:41.828Z,13.73
2023-02-19T16:31:49.618Z,14.75
2023-02-19T16:33:52.164Z,16.27
2023-02-19T16:35:54.638Z,15.70
2023-02-19T16:38:00.304Z,14.73
2023-02-19T16:40:08.734Z,13.23
2023-02-19T16:42:12.305Z,14.35
2023-02-19T16:44:31.246Z,14.15
2023-02-19T16:46:34.122Z,13.20
2023-02-19T16:48:36.601Z,12.63
2023-02-19T16:50:43.188Z,14.60
2023-02-19T16:52:59.721Z,12.20
2023-02-19T16:55:02.141Z,11.00
2023-02-19T16:57:04.625Z,13.95
2023-02-19T16:59:08.085Z,15.97
2023-02-19T17:01:10.849Z,15.00
2023-02-19T17:03:16.944Z,13.50
2023-02-19T17:05:20.238Z,13.60
2023-02-19T17:07:23.053Z,12.65
2023-02-19T17:09:25.461Z,10.93
2023-02-19T17:11:28.097Z,11.35
2023-02-19T17:13:30.769Z,10.82
2023-02-19T17:15:33.203Z,11.10
2023-02-19T17:17:35.843Z,10.52
2023-02-19T17:19:39.369Z,13.33
2023-02-19T17:21:41.823Z,13.32
2023-02-19T17:23:44.229Z,11.65
2023-02-19T17:25:46.664Z,10.70
2023-02-19T17:27:49.125Z,11.20
2023-02-19T17:29:51.545Z,11.63
2023-02-19T17:31:54.337Z,11.68
2023-02-19T17:33:57.093Z,14.40
2023-02-19T17:35:59.501Z,15.15
2023-02-19T17:38:04.218Z,16.75
2023-02-19T17:40:32.886Z,21.10
2023-02-19T17:42:35.680Z,24.55
2023-02-19T17:44:38.132Z,33.15
2023-02-19T17:46:40.624Z,37.40
2023-02-19T17:48:43.044Z,39.80
2023-02-19T17:50:45.567Z,43.40
2023-02-19T17:52:47.957Z,40.33
2023-02-19T17:54:50.345Z,38.92
2023-02-19T17:56:52.749Z,40.00
2023-02-19T17:58:56.773Z,25.45
2023-02-19T18:00:59.217Z,21.63
2023-02-19T18:03:01.694Z,32.97
2023-02-19T18:05:04.065Z,30.35
2023-02-19T18:07:06.431Z,33.08
2023-02-19T18:09:08.902Z,38.63
2023-02-19T18:11:11.529Z,44.40
2023-02-19T18:13:14.102Z,33.13
2023-02-19T18:15:20.886Z,39.15
2023-02-19T18:17:24.352Z,35.78
2023-02-19T18:19:26.772Z,37.28
2023-02-19T18:21:29.292Z,32.37
2023-02-19T18:23:31.787Z,41.75
2023-02-19T18:25:34.250Z,38.88
2023-02-19T18:27:37.237Z,41.53
2023-02-19T18:29:39.668Z,34.15
2023-02-19T18:31:42.193Z,33.97
2023-02-19T18:33:45.176Z,31.75
2023-02-19T18:35:49.326Z,26.90
2023-02-19T18:37:52.825Z,26.95
2023-02-19T18:39:55.293Z,26.38
2023-02-19T18:41:58.370Z,32.97
2023-02-19T18:44:00.740Z,25.88
2023-02-19T18:46:03.451Z,24.48
2023-02-19T18:48:06.335Z,23.02
2023-02-19T18:50:09.832Z,21.75
2023-02-19T18:52:12.450Z,19.67
2023-02-19T18:54:14.881Z,24.13
2023-02-19T18:56:17.850Z,26.02
2023-02-19T18:58:20.435Z,23.85
2023-02-19T19:00:26.398Z,23.00
2023-02-19T19:02:36.423Z,24.00
2023-02-19T19:04:50.188Z,22.50
2023-02-19T19:06:52.661Z,23.00
2023-02-19T19:08:55.060Z,19.92
2023-02-19T19:10:57.454Z,19.88
2023-02-19T19:12:59.992Z,19.33
2023-02-19T19:15:02.462Z,18.20
2023-02-19T19:17:05.026Z,18.40
2023-02-19T19:19:07.493Z,21.15
2023-02-19T19:21:10.313Z,17.95
2023-02-19T19:23:13.131Z,19.47
2023-02-19T19:25:15.574Z,20.48
2023-02-19T19:27:19.950Z,22.63
2023-02-19T19:29:23.283Z,21.70
2023-02-19T19:31:26.173Z,22.75
2023-02-19T19:33:28.694Z,23.27
2023-02-19T19:35:31.119Z,22.58
2023-02-19T19:37:33.636Z,26.83
2023-02-19T19:39:36.014Z,22.38
2023-02-19T19:41:38.558Z,26.15
2023-02-19T19:43:40.955Z,44.77
2023-02-19T19:45:43.493Z,33.95
2023-02-19T19:47:46.032Z,29.90
2023-02-19T19:49:48.463Z,22.50
2023-02-19T19:51:51.252Z,24.63
2023-02-19T19:53:53.752Z,26.70
2023-02-19T19:55:56.118Z,29.13
2023-02-19T19:58:00.474Z,33.83
2023-02-19T20:00:03.702Z,34.33
2023-02-19T20:02:07.385Z,29.88
2023-02-19T20:04:09.918Z,27.77
2023-02-19T20:06:12.348Z,28.63
2023-02-19T20:08:14.909Z,20.85
2023-02-19T20:10:19.905Z,24.75
2023-02-19T20:12:22.349Z,29.15
2023-02-19T20:14:25.657Z,23.17
2023-02-19T20:16:28.786Z,27.83
2023-02-19T20:18:31.247Z,23.33
2023-02-19T20:20:34.120Z,18.10
2023-02-19T20:22:37.644Z,17.70
2023-02-19T20:24:40.076Z,17.17
2023-02-19T20:26:42.701Z,19.25
2023-02-19T20:28:46.513Z,17.10
2023-02-19T20:30:49.266Z,15.32
2023-02-19T20:32:51.895Z,19.38
2023-02-19T20:34:54.389Z,16.97
2023-02-19T20:36:57.803Z,19.40
2023-02-19T20:39:00.228Z,20.90
2023-02-19T20:41:02.929Z,25.33
2023-02-19T20:43:05.364Z,76.10
2023-02-19T20:45:08.199Z,38.17
2023-02-19T20:47:10.816Z,31.80
2023-02-19T20:49:14.304Z,32.13
2023-02-19T20:51:16.810Z,35.80
2023-02-19T20:53:19.235Z,35.97
2023-02-19T20:55:21.911Z,25.33
2023-02-19T20:57:24.326Z,30.00
2023-02-19T20:59:30.839Z,30.10
2023-02-19T21:01:33.448Z,29.08
2023-02-19T21:03:35.883Z,21.63
2023-02-19T21:05:39.839Z,27.83
2023-02-19T21:07:42.315Z,42.53
2023-02-19T21:09:44.820Z,34.03
2023-02-19T21:11:48.182Z,28.40
2023-02-19T21:13:50.686Z,36.22
2023-02-19T21:15:53.097Z,29.90
2023-02-19T21:17:55.733Z,28.35
2023-02-19T21:19:58.173Z,31.73
2023-02-19T21:22:00.646Z,32.28
2023-02-19T21:24:03.333Z,19.15
2023-02-19T21:26:05.824Z,35.43
2023-02-19T21:28:09.767Z,25.58
2023-02-19T21:30:12.425Z,53.90
2023-02-19T21:32:15.032Z,30.45
2023-02-19T21:34:20.526Z,21.73
2023-02-19T21:36:22.939Z,22.60
2023-02-19T21:38:25.622Z,18.10
2023-02-19T21:40:30.043Z,193.10
2023-02-19T21:42:32.387Z,26.35
2023-02-19T21:44:34.882Z,16.55
2023-02-19T21:46:37.469Z,54.97
2023-02-19T21:48:39.853Z,70.82
2023-02-19T21:50:45.865Z,21.27
2023-02-19T21:52:48.862Z,18.30
2023-02-19T21:54:51.367Z,17.35
2023-02-19T21:56:54.748Z,15.40
2023-02-19T21:58:57.469Z,18.75
2023-02-19T22:00:59.972Z,18.17
2023-02-19T22:03:02.490Z,14.27
2023-02-19T22:05:05.142Z,18.48
2023-02-19T22:07:07.538Z,25.53
2023-02-19T22:09:10.894Z,21.70
2023-02-19T22:11:13.298Z,19.67
2023-02-19T22:13:15.692Z,24.23
2023-02-19T22:15:18.200Z,20.50
2023-02-19T22:17:21.011Z,15.57
2023-02-19T22:19:23.367Z,13.35
2023-02-19T22:21:28.859Z,12.07
2023-02-19T22:23:31.512Z,11.73
2023-02-19T22:25:33.865Z,10.90
2023-02-19T22:27:36.465Z,9.80
2023-02-19T22:29:38.829Z,10.02
2023-02-19T22:31:41.314Z,10.77
2023-02-19T22:33:44.148Z,10.18
2023-02-19T22:35:46.538Z,9.80
2023-02-19T22:37:48.916Z,9.80
2023-02-19T22:39:51.310Z,9.02
2023-02-19T22:41:54.268Z,9.13
2023-02-19T22:43:57.976Z,8.23
2023-02-19T22:46:00.429Z,7.95
2023-02-19T22:48:02.886Z,8.57
2023-02-19T22:50:06.201Z,9.02
2023-02-19T22:52:10.041Z,8.70
2023-02-19T22:54:12.437Z,9.23
2023-02-19T22:56:16.345Z,9.20
2023-02-19T22:58:18.813Z,9.40
2023-02-19T23:00:22.362Z,10.48
2023-02-19T23:02:24.799Z,10.65
2023-02-19T23:04:27.396Z,9.00
2023-02-19T23:06:32.802Z,7.20
2023-02-19T23:08:35.171Z,7.07
2023-02-19T23:10:37.640Z,7.82
2023-02-19T23:12:41.270Z,8.07
2023-02-19T23:14:43.781Z,8.50
2023-02-19T23:16:46.254Z,8.48
2023-02-19T23:18:50.844Z,8.10
2023-02-19T23:20:53.199Z,7.13
2023-02-19T23:22:55.679Z,7.40
2023-02-19T23:24:58.072Z,6.75
2023-02-19T23:27:00.680Z,7.68
2023-02-19T23:29:03.253Z,7.80
2023-02-19T23:31:06.584Z,6.32
2023-02-19T23:33:09.095Z,8.43
2023-02-19T23:35:11.795Z,6.38
2023-02-19T23:37:14.550Z,5.32
2023-02-19T23:39:18.751Z,5.03
2023-02-19T23:41:21.216Z,6.00
2023-02-19T23:43:23.614Z,6.60
2023-02-19T23:45:26.024Z,9.93
2023-02-19T23:47:30.641Z,9.85
2023-02-19T23:49:33.197Z,11.73
2023-02-19T23:51:35.677Z,10.68
2023-02-19T23:53:38.094Z,11.13
2023-02-19T23:55:40.528Z,12.05
2023-02-19T23:57:43.077Z,11.57
2023-02-19T23:59:47.352Z,11.03
